sensor_id;sensor_type;location;lat;lon;timestamp;P1;durP1;ratioP1;P2;durP2;ratioP2
5147;SDS011;2592;48.140;7.614;2023-05-16T00:00:49;9.83;;;6.50;;
5147;SDS011;2592;48.140;7.614;2023-05-16T00:03:17;7.10;;;6.40;;
5147;SDS011;2592;48.140;7.614;2023-05-16T00:05:43;7.33;;;6.03;;
5147;SDS011;2592;48.140;7.614;2023-05-16T00:08:10;11.87;;;7.70;;
5147;SDS011;2592;48.140;7.614;2023-05-16T00:10:36;6.87;;;6.17;;
5147;SDS011;2592;48.140;7.614;2023-05-16T00:13:03;8.03;;;7.13;;
5147;SDS011;2592;48.140;7.614;2023-05-16T00:15:32;7.57;;;6.77;;
5147;SDS011;2592;48.140;7.614;2023-05-16T00:17:58;10.60;;;7.07;;
5147;SDS011;2592;48.140;7.614;2023-05-16T00:20:25;7.80;;;6.43;;
5147;SDS011;2592;48.140;7.614;2023-05-16T00:22:52;7.60;;;6.27;;
5147;SDS011;2592;48.140;7.614;2023-05-16T00:25:19;6.97;;;6.27;;
5147;SDS011;2592;48.140;7.614;2023-05-16T00:27:45;9.03;;;7.23;;
5147;SDS011;2592;48.140;7.614;2023-05-16T00:30:12;7.03;;;6.33;;
5147;SDS011;2592;48.140;7.614;2023-05-16T00:32:40;8.90;;;7.03;;
5147;SDS011;2592;48.140;7.614;2023-05-16T00:35:06;8.83;;;6.50;;
5147;SDS011;2592;48.140;7.614;2023-05-16T00:37:34;6.97;;;6.23;;
5147;SDS011;2592;48.140;7.614;2023-05-16T00:40:01;7.50;;;6.80;;
5147;SDS011;2592;48.140;7.614;2023-05-16T00:42:29;10.73;;;6.80;;
5147;SDS011;2592;48.140;7.614;2023-05-16T00:44:56;7.50;;;6.70;;
5147;SDS011;2592;48.140;7.614;2023-05-16T00:47:22;11.30;;;7.87;;
5147;SDS011;2592;48.140;7.614;2023-05-16T00:49:50;8.43;;;7.10;;
5147;SDS011;2592;48.140;7.614;2023-05-16T00:52:17;9.87;;;7.17;;
5147;SDS011;2592;48.140;7.614;2023-05-16T00:54:43;8.03;;;7.23;;
5147;SDS011;2592;48.140;7.614;2023-05-16T00:57:10;8.60;;;6.90;;
5147;SDS011;2592;48.140;7.614;2023-05-16T00:59:36;8.83;;;7.93;;
5147;SDS011;2592;48.140;7.614;2023-05-16T01:02:04;9.37;;;6.93;;
5147;SDS011;2592;48.140;7.614;2023-05-16T01:04:30;8.60;;;7.63;;
5147;SDS011;2592;48.140;7.614;2023-05-16T01:06:58;8.63;;;7.20;;
5147;SDS011;2592;48.140;7.614;2023-05-16T01:09:25;8.23;;;7.20;;
5147;SDS011;2592;48.140;7.614;2023-05-16T01:11:55;7.30;;;6.60;;
5147;SDS011;2592;48.140;7.614;2023-05-16T01:14:24;11.73;;;7.10;;
5147;SDS011;2592;48.140;7.614;2023-05-16T01:16:57;9.13;;;6.40;;
5147;SDS011;2592;48.140;7.614;2023-05-16T01:22:11;11.43;;;7.37;;
5147;SDS011;2592;48.140;7.614;2023-05-16T01:24:42;7.40;;;6.70;;
5147;SDS011;2592;48.140;7.614;2023-05-16T01:27:10;8.80;;;7.90;;
5147;SDS011;2592;48.140;7.614;2023-05-16T01:29:38;9.43;;;8.30;;
5147;SDS011;2592;48.140;7.614;2023-05-16T01:32:05;9.30;;;8.40;;
5147;SDS011;2592;48.140;7.614;2023-05-16T01:34:31;9.40;;;7.90;;
5147;SDS011;2592;48.140;7.614;2023-05-16T01:36:59;9.50;;;7.50;;
5147;SDS011;2592;48.140;7.614;2023-05-16T01:39:28;10.40;;;7.90;;
5147;SDS011;2592;48.140;7.614;2023-05-16T01:41:58;9.90;;;8.00;;
5147;SDS011;2592;48.140;7.614;2023-05-16T01:44:30;9.67;;;8.47;;
5147;SDS011;2592;48.140;7.614;2023-05-16T01:46:57;10.07;;;9.07;;
5147;SDS011;2592;48.140;7.614;2023-05-16T01:49:25;10.40;;;8.00;;
5147;SDS011;2592;48.140;7.614;2023-05-16T01:51:58;10.37;;;8.27;;
5147;SDS011;2592;48.140;7.614;2023-05-16T01:54:25;10.10;;;8.80;;
5147;SDS011;2592;48.140;7.614;2023-05-16T01:56:55;9.70;;;8.50;;
5147;SDS011;2592;48.140;7.614;2023-05-16T01:59:22;10.00;;;8.87;;
5147;SDS011;2592;48.140;7.614;2023-05-16T02:01:52;9.37;;;8.47;;
5147;SDS011;2592;48.140;7.614;2023-05-16T02:04:18;11.03;;;9.27;;
5147;SDS011;2592;48.140;7.614;2023-05-16T02:06:45;9.90;;;8.30;;
5147;SDS011;2592;48.140;7.614;2023-05-16T02:09:11;10.80;;;9.13;;
5147;SDS011;2592;48.140;7.614;2023-05-16T02:11:38;12.97;;;10.23;;
5147;SDS011;2592;48.140;7.614;2023-05-16T02:14:04;13.43;;;9.87;;
5147;SDS011;2592;48.140;7.614;2023-05-16T02:16:31;11.47;;;10.10;;
5147;SDS011;2592;48.140;7.614;2023-05-16T02:18:59;11.43;;;10.03;;
5147;SDS011;2592;48.140;7.614;2023-05-16T02:21:25;15.07;;;11.77;;
5147;SDS011;2592;48.140;7.614;2023-05-16T02:23:52;15.63;;;11.70;;
5147;SDS011;2592;48.140;7.614;2023-05-16T02:26:18;13.67;;;12.00;;
5147;SDS011;2592;48.140;7.614;2023-05-16T02:28:45;17.20;;;12.40;;
5147;SDS011;2592;48.140;7.614;2023-05-16T02:31:15;15.60;;;13.60;;
5147;SDS011;2592;48.140;7.614;2023-05-16T02:33:50;17.20;;;14.00;;
5147;SDS011;2592;48.140;7.614;2023-05-16T02:36:18;17.20;;;15.00;;
5147;SDS011;2592;48.140;7.614;2023-05-16T02:38:45;26.50;;;14.87;;
5147;SDS011;2592;48.140;7.614;2023-05-16T02:41:11;19.97;;;16.03;;
5147;SDS011;2592;48.140;7.614;2023-05-16T02:43:38;24.17;;;15.87;;
5147;SDS011;2592;48.140;7.614;2023-05-16T02:46:05;21.83;;;16.97;;
5147;SDS011;2592;48.140;7.614;2023-05-16T02:48:31;19.90;;;16.33;;
5147;SDS011;2592;48.140;7.614;2023-05-16T02:50:58;20.37;;;17.07;;
5147;SDS011;2592;48.140;7.614;2023-05-16T02:53:26;23.27;;;17.70;;
5147;SDS011;2592;48.140;7.614;2023-05-16T02:55:52;18.03;;;16.10;;
5147;SDS011;2592;48.140;7.614;2023-05-16T02:58:19;25.30;;;19.03;;
5147;SDS011;2592;48.140;7.614;2023-05-16T03:00:45;21.60;;;18.03;;
5147;SDS011;2592;48.140;7.614;2023-05-16T03:03:12;18.20;;;15.93;;
5147;SDS011;2592;48.140;7.614;2023-05-16T03:05:38;18.87;;;16.87;;
5147;SDS011;2592;48.140;7.614;2023-05-16T03:08:04;21.00;;;16.60;;
5147;SDS011;2592;48.140;7.614;2023-05-16T03:10:32;22.97;;;17.30;;
5147;SDS011;2592;48.140;7.614;2023-05-16T03:12:59;23.63;;;18.37;;
5147;SDS011;2592;48.140;7.614;2023-05-16T03:15:25;20.20;;;17.87;;
5147;SDS011;2592;48.140;7.614;2023-05-16T03:17:52;21.13;;;18.77;;
5147;SDS011;2592;48.140;7.614;2023-05-16T03:20:19;21.40;;;18.33;;
5147;SDS011;2592;48.140;7.614;2023-05-16T03:22:45;30.43;;;17.60;;
5147;SDS011;2592;48.140;7.614;2023-05-16T03:25:12;23.77;;;19.03;;
5147;SDS011;2592;48.140;7.614;2023-05-16T03:27:39;23.60;;;20.30;;
5147;SDS011;2592;48.140;7.614;2023-05-16T03:30:06;29.23;;;20.50;;
5147;SDS011;2592;48.140;7.614;2023-05-16T03:32:33;31.73;;;20.73;;
5147;SDS011;2592;48.140;7.614;2023-05-16T03:35:00;25.93;;;19.30;;
5147;SDS011;2592;48.140;7.614;2023-05-16T03:37:26;26.13;;;20.47;;
5147;SDS011;2592;48.140;7.614;2023-05-16T03:39:53;26.40;;;20.73;;
5147;SDS011;2592;48.140;7.614;2023-05-16T03:42:20;25.77;;;20.37;;
5147;SDS011;2592;48.140;7.614;2023-05-16T03:44:47;26.60;;;21.83;;
5147;SDS011;2592;48.140;7.614;2023-05-16T03:47:14;29.17;;;21.30;;
5147;SDS011;2592;48.140;7.614;2023-05-16T03:49:40;24.33;;;20.90;;
5147;SDS011;2592;48.140;7.614;2023-05-16T03:52:07;27.83;;;21.20;;
5147;SDS011;2592;48.140;7.614;2023-05-16T03:54:33;27.30;;;22.93;;
5147;SDS011;2592;48.140;7.614;2023-05-16T03:57:00;24.43;;;20.30;;
5147;SDS011;2592;48.140;7.614;2023-05-16T03:59:26;30.00;;;22.17;;
5147;SDS011;2592;48.140;7.614;2023-05-16T04:01:54;29.40;;;21.17;;
5147;SDS011;2592;48.140;7.614;2023-05-16T04:04:21;26.53;;;21.40;;
5147;SDS011;2592;48.140;7.614;2023-05-16T04:06:47;27.00;;;21.33;;
5147;SDS011;2592;48.140;7.614;2023-05-16T04:09:13;29.53;;;20.57;;
5147;SDS011;2592;48.140;7.614;2023-05-16T04:11:40;30.10;;;23.67;;
5147;SDS011;2592;48.140;7.614;2023-05-16T04:14:07;27.93;;;21.47;;
5147;SDS011;2592;48.140;7.614;2023-05-16T04:16:33;26.80;;;22.10;;
5147;SDS011;2592;48.140;7.614;2023-05-16T04:19:01;25.17;;;20.83;;
5147;SDS011;2592;48.140;7.614;2023-05-16T04:21:28;27.13;;;21.63;;
5147;SDS011;2592;48.140;7.614;2023-05-16T04:23:55;28.00;;;22.53;;
5147;SDS011;2592;48.140;7.614;2023-05-16T04:26:22;26.40;;;21.33;;
5147;SDS011;2592;48.140;7.614;2023-05-16T04:28:49;33.73;;;22.43;;
5147;SDS011;2592;48.140;7.614;2023-05-16T04:31:16;26.33;;;21.70;;
5147;SDS011;2592;48.140;7.614;2023-05-16T04:33:42;24.80;;;20.90;;
5147;SDS011;2592;48.140;7.614;2023-05-16T04:36:10;26.57;;;21.23;;
5147;SDS011;2592;48.140;7.614;2023-05-16T04:38:37;28.57;;;21.50;;
5147;SDS011;2592;48.140;7.614;2023-05-16T04:41:03;29.60;;;23.60;;
5147;SDS011;2592;48.140;7.614;2023-05-16T04:43:29;32.47;;;21.87;;
5147;SDS011;2592;48.140;7.614;2023-05-16T04:45:56;30.57;;;23.03;;
5147;SDS011;2592;48.140;7.614;2023-05-16T04:48:23;29.63;;;23.23;;
5147;SDS011;2592;48.140;7.614;2023-05-16T04:50:50;30.57;;;22.80;;
5147;SDS011;2592;48.140;7.614;2023-05-16T04:53:18;34.23;;;21.90;;
5147;SDS011;2592;48.140;7.614;2023-05-16T04:55:44;36.70;;;24.83;;
5147;SDS011;2592;48.140;7.614;2023-05-16T04:58:11;33.93;;;24.27;;
5147;SDS011;2592;48.140;7.614;2023-05-16T05:00:37;27.83;;;20.60;;
5147;SDS011;2592;48.140;7.614;2023-05-16T05:03:04;30.97;;;24.50;;
5147;SDS011;2592;48.140;7.614;2023-05-16T05:05:30;29.67;;;23.53;;
5147;SDS011;2592;48.140;7.614;2023-05-16T05:07:57;33.27;;;25.23;;
5147;SDS011;2592;48.140;7.614;2023-05-16T05:10:26;28.60;;;23.40;;
5147;SDS011;2592;48.140;7.614;2023-05-16T05:12:52;29.70;;;21.53;;
5147;SDS011;2592;48.140;7.614;2023-05-16T05:15:19;30.27;;;23.10;;
5147;SDS011;2592;48.140;7.614;2023-05-16T05:17:45;33.63;;;22.60;;
5147;SDS011;2592;48.140;7.614;2023-05-16T05:20:12;29.70;;;22.80;;
5147;SDS011;2592;48.140;7.614;2023-05-16T05:22:38;30.60;;;23.40;;
5147;SDS011;2592;48.140;7.614;2023-05-16T05:25:05;30.43;;;23.50;;
5147;SDS011;2592;48.140;7.614;2023-05-16T05:27:33;26.50;;;21.47;;
5147;SDS011;2592;48.140;7.614;2023-05-16T05:30:00;28.67;;;21.13;;
5147;SDS011;2592;48.140;7.614;2023-05-16T05:32:27;32.50;;;25.17;;
5147;SDS011;2592;48.140;7.614;2023-05-16T05:34:53;30.47;;;22.50;;
5147;SDS011;2592;48.140;7.614;2023-05-16T05:37:20;28.13;;;21.27;;
5147;SDS011;2592;48.140;7.614;2023-05-16T05:39:46;30.80;;;22.00;;
5147;SDS011;2592;48.140;7.614;2023-05-16T05:42:12;28.93;;;22.53;;
5147;SDS011;2592;48.140;7.614;2023-05-16T05:44:40;38.47;;;25.90;;
5147;SDS011;2592;48.140;7.614;2023-05-16T05:47:07;27.40;;;19.80;;
5147;SDS011;2592;48.140;7.614;2023-05-16T05:49:34;26.80;;;19.47;;
5147;SDS011;2592;48.140;7.614;2023-05-16T05:52:00;31.13;;;20.90;;
5147;SDS011;2592;48.140;7.614;2023-05-16T05:54:27;25.40;;;19.87;;
5147;SDS011;2592;48.140;7.614;2023-05-16T05:56:54;32.83;;;19.80;;
5147;SDS011;2592;48.140;7.614;2023-05-16T05:59:20;26.33;;;20.10;;
5147;SDS011;2592;48.140;7.614;2023-05-16T06:01:48;27.90;;;19.60;;
5147;SDS011;2592;48.140;7.614;2023-05-16T06:04:16;31.67;;;20.37;;
5147;SDS011;2592;48.140;7.614;2023-05-16T06:06:43;24.53;;;18.37;;
5147;SDS011;2592;48.140;7.614;2023-05-16T06:09:09;29.00;;;21.10;;
5147;SDS011;2592;48.140;7.614;2023-05-16T06:11:36;25.70;;;17.93;;
5147;SDS011;2592;48.140;7.614;2023-05-16T06:14:03;28.53;;;20.00;;
5147;SDS011;2592;48.140;7.614;2023-05-16T06:16:29;26.73;;;18.90;;
5147;SDS011;2592;48.140;7.614;2023-05-16T06:18:57;30.23;;;19.80;;
5147;SDS011;2592;48.140;7.614;2023-05-16T06:21:24;27.50;;;19.50;;
5147;SDS011;2592;48.140;7.614;2023-05-16T06:23:50;24.80;;;18.50;;
5147;SDS011;2592;48.140;7.614;2023-05-16T06:26:16;23.93;;;18.20;;
5147;SDS011;2592;48.140;7.614;2023-05-16T06:28:43;72.83;;;43.07;;
5147;SDS011;2592;48.140;7.614;2023-05-16T06:31:09;209.20;;;186.50;;
5147;SDS011;2592;48.140;7.614;2023-05-16T06:33:36;71.67;;;58.93;;
5147;SDS011;2592;48.140;7.614;2023-05-16T06:36:04;50.60;;;42.57;;
5147;SDS011;2592;48.140;7.614;2023-05-16T06:38:31;28.10;;;21.20;;
5147;SDS011;2592;48.140;7.614;2023-05-16T06:40:57;24.57;;;20.07;;
5147;SDS011;2592;48.140;7.614;2023-05-16T06:43:23;27.00;;;20.10;;
5147;SDS011;2592;48.140;7.614;2023-05-16T06:45:50;23.43;;;18.20;;
5147;SDS011;2592;48.140;7.614;2023-05-16T06:48:17;24.00;;;18.70;;
5147;SDS011;2592;48.140;7.614;2023-05-16T06:50:45;26.77;;;19.03;;
5147;SDS011;2592;48.140;7.614;2023-05-16T06:53:13;23.40;;;17.90;;
5147;SDS011;2592;48.140;7.614;2023-05-16T06:55:40;25.03;;;18.10;;
5147;SDS011;2592;48.140;7.614;2023-05-16T06:58:06;20.60;;;15.60;;
5147;SDS011;2592;48.140;7.614;2023-05-16T07:00:33;23.00;;;17.17;;
5147;SDS011;2592;48.140;7.614;2023-05-16T07:02:59;23.20;;;16.40;;
5147;SDS011;2592;48.140;7.614;2023-05-16T07:05:26;21.73;;;16.30;;
5147;SDS011;2592;48.140;7.614;2023-05-16T07:07:52;16.73;;;13.67;;
5147;SDS011;2592;48.140;7.614;2023-05-16T07:10:20;17.67;;;14.70;;
5147;SDS011;2592;48.140;7.614;2023-05-16T07:12:47;22.23;;;14.80;;
5147;SDS011;2592;48.140;7.614;2023-05-16T07:15:13;20.20;;;15.23;;
5147;SDS011;2592;48.140;7.614;2023-05-16T07:17:40;21.90;;;15.10;;
5147;SDS011;2592;48.140;7.614;2023-05-16T07:20:07;24.27;;;15.27;;
5147;SDS011;2592;48.140;7.614;2023-05-16T07:22:37;14.93;;;10.80;;
5147;SDS011;2592;48.140;7.614;2023-05-16T07:25:04;18.07;;;14.00;;
5147;SDS011;2592;48.140;7.614;2023-05-16T07:27:32;17.37;;;13.20;;
5147;SDS011;2592;48.140;7.614;2023-05-16T07:29:58;17.10;;;12.40;;
5147;SDS011;2592;48.140;7.614;2023-05-16T07:32:25;22.27;;;15.80;;
5147;SDS011;2592;48.140;7.614;2023-05-16T07:34:51;19.83;;;14.27;;
5147;SDS011;2592;48.140;7.614;2023-05-16T07:37:18;19.70;;;14.07;;
5147;SDS011;2592;48.140;7.614;2023-05-16T07:39:44;12.27;;;10.80;;
5147;SDS011;2592;48.140;7.614;2023-05-16T07:42:11;21.70;;;14.80;;
5147;SDS011;2592;48.140;7.614;2023-05-16T07:44:38;19.03;;;15.10;;
5147;SDS011;2592;48.140;7.614;2023-05-16T07:47:05;19.10;;;14.53;;
5147;SDS011;2592;48.140;7.614;2023-05-16T07:49:31;16.40;;;12.70;;
5147;SDS011;2592;48.140;7.614;2023-05-16T07:51:58;19.00;;;13.23;;
5147;SDS011;2592;48.140;7.614;2023-05-16T07:54:24;22.40;;;15.67;;
5147;SDS011;2592;48.140;7.614;2023-05-16T07:56:51;15.23;;;13.07;;
5147;SDS011;2592;48.140;7.614;2023-05-16T07:59:17;22.17;;;14.10;;
5147;SDS011;2592;48.140;7.614;2023-05-16T08:01:45;18.33;;;13.10;;
5147;SDS011;2592;48.140;7.614;2023-05-16T08:04:12;25.20;;;14.97;;
5147;SDS011;2592;48.140;7.614;2023-05-16T08:06:39;18.60;;;12.00;;
5147;SDS011;2592;48.140;7.614;2023-05-16T08:09:05;15.57;;;10.90;;
5147;SDS011;2592;48.140;7.614;2023-05-16T08:11:32;17.10;;;13.23;;
5147;SDS011;2592;48.140;7.614;2023-05-16T08:13:59;17.43;;;13.97;;
5147;SDS011;2592;48.140;7.614;2023-05-16T08:16:25;18.07;;;12.93;;
5147;SDS011;2592;48.140;7.614;2023-05-16T08:18:53;19.67;;;14.07;;
5147;SDS011;2592;48.140;7.614;2023-05-16T08:21:19;17.20;;;13.20;;
5147;SDS011;2592;48.140;7.614;2023-05-16T08:23:46;17.03;;;12.80;;
5147;SDS011;2592;48.140;7.614;2023-05-16T08:26:12;19.90;;;12.63;;
5147;SDS011;2592;48.140;7.614;2023-05-16T08:28:39;24.37;;;12.83;;
5147;SDS011;2592;48.140;7.614;2023-05-16T08:31:05;20.40;;;13.50;;
5147;SDS011;2592;48.140;7.614;2023-05-16T08:33:32;18.30;;;13.70;;
5147;SDS011;2592;48.140;7.614;2023-05-16T08:36:00;15.00;;;11.97;;
5147;SDS011;2592;48.140;7.614;2023-05-16T08:38:26;21.63;;;13.60;;
5147;SDS011;2592;48.140;7.614;2023-05-16T08:40:53;18.10;;;12.40;;
5147;SDS011;2592;48.140;7.614;2023-05-16T08:43:19;23.43;;;13.40;;
5147;SDS011;2592;48.140;7.614;2023-05-16T08:45:45;15.07;;;12.37;;
5147;SDS011;2592;48.140;7.614;2023-05-16T08:48:12;19.70;;;12.53;;
5147;SDS011;2592;48.140;7.614;2023-05-16T08:50:41;18.50;;;12.53;;
5147;SDS011;2592;48.140;7.614;2023-05-16T08:53:09;15.50;;;11.47;;
5147;SDS011;2592;48.140;7.614;2023-05-16T08:55:37;14.83;;;11.87;;
5147;SDS011;2592;48.140;7.614;2023-05-16T08:58:04;17.67;;;12.03;;
5147;SDS011;2592;48.140;7.614;2023-05-16T09:00:30;17.70;;;12.03;;
5147;SDS011;2592;48.140;7.614;2023-05-16T09:02:57;17.83;;;11.97;;
5147;SDS011;2592;48.140;7.614;2023-05-16T09:05:24;16.83;;;11.53;;
5147;SDS011;2592;48.140;7.614;2023-05-16T09:07:50;16.40;;;11.97;;
5147;SDS011;2592;48.140;7.614;2023-05-16T09:10:18;18.40;;;10.63;;
5147;SDS011;2592;48.140;7.614;2023-05-16T09:12:45;14.70;;;11.30;;
5147;SDS011;2592;48.140;7.614;2023-05-16T09:15:11;14.00;;;10.80;;
5147;SDS011;2592;48.140;7.614;2023-05-16T09:17:38;16.40;;;10.43;;
5147;SDS011;2592;48.140;7.614;2023-05-16T09:20:08;17.27;;;11.77;;
5147;SDS011;2592;48.140;7.614;2023-05-16T09:22:35;15.20;;;12.03;;
5147;SDS011;2592;48.140;7.614;2023-05-16T09:25:02;13.83;;;11.00;;
5147;SDS011;2592;48.140;7.614;2023-05-16T09:27:30;14.10;;;10.60;;
5147;SDS011;2592;48.140;7.614;2023-05-16T09:29:57;14.53;;;10.03;;
5147;SDS011;2592;48.140;7.614;2023-05-16T09:32:24;16.73;;;10.00;;
5147;SDS011;2592;48.140;7.614;2023-05-16T09:34:51;15.73;;;10.80;;
5147;SDS011;2592;48.140;7.614;2023-05-16T09:37:18;13.67;;;10.07;;
5147;SDS011;2592;48.140;7.614;2023-05-16T09:39:45;12.50;;;9.43;;
5147;SDS011;2592;48.140;7.614;2023-05-16T09:42:12;11.33;;;8.10;;
5147;SDS011;2592;48.140;7.614;2023-05-16T09:44:40;13.00;;;9.50;;
5147;SDS011;2592;48.140;7.614;2023-05-16T09:47:06;8.33;;;6.93;;
5147;SDS011;2592;48.140;7.614;2023-05-16T09:49:33;10.23;;;7.63;;
5147;SDS011;2592;48.140;7.614;2023-05-16T09:52:02;7.70;;;6.60;;
5147;SDS011;2592;48.140;7.614;2023-05-16T09:54:29;9.80;;;6.00;;
5147;SDS011;2592;48.140;7.614;2023-05-16T09:56:56;9.10;;;6.30;;
5147;SDS011;2592;48.140;7.614;2023-05-16T09:59:24;10.90;;;6.13;;
5147;SDS011;2592;48.140;7.614;2023-05-16T10:01:52;12.50;;;8.07;;
5147;SDS011;2592;48.140;7.614;2023-05-16T10:04:19;7.50;;;5.47;;
5147;SDS011;2592;48.140;7.614;2023-05-16T10:06:46;7.03;;;5.27;;
5147;SDS011;2592;48.140;7.614;2023-05-16T10:09:15;6.60;;;5.07;;
5147;SDS011;2592;48.140;7.614;2023-05-16T10:11:43;7.03;;;4.73;;
5147;SDS011;2592;48.140;7.614;2023-05-16T10:14:10;7.17;;;4.73;;
5147;SDS011;2592;48.140;7.614;2023-05-16T10:16:36;5.67;;;4.80;;
5147;SDS011;2592;48.140;7.614;2023-05-16T10:19:07;6.60;;;4.60;;
5147;SDS011;2592;48.140;7.614;2023-05-16T10:21:34;9.00;;;4.07;;
5147;SDS011;2592;48.140;7.614;2023-05-16T10:24:03;4.67;;;3.93;;
5147;SDS011;2592;48.140;7.614;2023-05-16T10:26:31;4.57;;;3.83;;
5147;SDS011;2592;48.140;7.614;2023-05-16T10:28:58;5.83;;;3.97;;
5147;SDS011;2592;48.140;7.614;2023-05-16T10:31:25;5.50;;;3.37;;
5147;SDS011;2592;48.140;7.614;2023-05-16T10:33:53;6.23;;;4.77;;
5147;SDS011;2592;48.140;7.614;2023-05-16T10:36:21;7.13;;;5.77;;
5147;SDS011;2592;48.140;7.614;2023-05-16T10:38:48;5.90;;;4.40;;
5147;SDS011;2592;48.140;7.614;2023-05-16T10:41:15;6.70;;;4.97;;
5147;SDS011;2592;48.140;7.614;2023-05-16T10:43:43;5.70;;;4.43;;
5147;SDS011;2592;48.140;7.614;2023-05-16T10:46:10;4.07;;;3.67;;
5147;SDS011;2592;48.140;7.614;2023-05-16T10:48:38;5.83;;;4.60;;
5147;SDS011;2592;48.140;7.614;2023-05-16T10:51:33;5.50;;;4.30;;
5147;SDS011;2592;48.140;7.614;2023-05-16T10:54:05;4.30;;;3.70;;
5147;SDS011;2592;48.140;7.614;2023-05-16T10:56:32;7.60;;;3.87;;
5147;SDS011;2592;48.140;7.614;2023-05-16T10:58:59;9.47;;;5.00;;
5147;SDS011;2592;48.140;7.614;2023-05-16T11:01:26;4.33;;;3.93;;
5147;SDS011;2592;48.140;7.614;2023-05-16T11:04:03;4.93;;;4.43;;
5147;SDS011;2592;48.140;7.614;2023-05-16T11:06:30;6.47;;;4.53;;
5147;SDS011;2592;48.140;7.614;2023-05-16T11:09:17;3.70;;;3.40;;
5147;SDS011;2592;48.140;7.614;2023-05-16T11:11:46;4.10;;;3.00;;
5147;SDS011;2592;48.140;7.614;2023-05-16T11:14:19;5.37;;;3.60;;
5147;SDS011;2592;48.140;7.614;2023-05-16T11:16:47;5.17;;;3.97;;
5147;SDS011;2592;48.140;7.614;2023-05-16T11:19:14;3.70;;;3.40;;
5147;SDS011;2592;48.140;7.614;2023-05-16T11:22:09;3.87;;;2.93;;
5147;SDS011;2592;48.140;7.614;2023-05-16T11:24:38;9.10;;;2.93;;
5147;SDS011;2592;48.140;7.614;2023-05-16T11:27:04;3.03;;;2.73;;
5147;SDS011;2592;48.140;7.614;2023-05-16T11:29:31;3.40;;;3.03;;
5147;SDS011;2592;48.140;7.614;2023-05-16T11:31:58;2.73;;;2.53;;
5147;SDS011;2592;48.140;7.614;2023-05-16T11:34:25;2.70;;;2.50;;
5147;SDS011;2592;48.140;7.614;2023-05-16T11:36:52;3.00;;;2.70;;
5147;SDS011;2592;48.140;7.614;2023-05-16T11:39:20;2.90;;;2.70;;
5147;SDS011;2592;48.140;7.614;2023-05-16T11:41:49;3.37;;;2.40;;
5147;SDS011;2592;48.140;7.614;2023-05-16T11:44:16;2.80;;;2.60;;
5147;SDS011;2592;48.140;7.614;2023-05-16T11:46:42;8.57;;;2.50;;
5147;SDS011;2592;48.140;7.614;2023-05-16T11:49:09;2.80;;;2.57;;
5147;SDS011;2592;48.140;7.614;2023-05-16T11:51:36;3.60;;;3.30;;
5147;SDS011;2592;48.140;7.614;2023-05-16T11:54:03;3.87;;;2.80;;
5147;SDS011;2592;48.140;7.614;2023-05-16T11:56:30;3.00;;;2.80;;
5147;SDS011;2592;48.140;7.614;2023-05-16T11:58:58;5.40;;;3.13;;
5147;SDS011;2592;48.140;7.614;2023-05-16T12:01:25;12.90;;;3.03;;
5147;SDS011;2592;48.140;7.614;2023-05-16T12:03:56;3.40;;;3.17;;
5147;SDS011;2592;48.140;7.614;2023-05-16T12:06:23;3.00;;;2.80;;
5147;SDS011;2592;48.140;7.614;2023-05-16T12:08:50;2.83;;;2.57;;
5147;SDS011;2592;48.140;7.614;2023-05-16T12:11:16;12.73;;;3.03;;
5147;SDS011;2592;48.140;7.614;2023-05-16T12:13:43;3.93;;;3.53;;
5147;SDS011;2592;48.140;7.614;2023-05-16T12:16:11;3.33;;;3.00;;
5147;SDS011;2592;48.140;7.614;2023-05-16T12:18:38;4.43;;;3.10;;
5147;SDS011;2592;48.140;7.614;2023-05-16T12:21:04;4.97;;;3.77;;
5147;SDS011;2592;48.140;7.614;2023-05-16T12:23:31;3.57;;;3.20;;
5147;SDS011;2592;48.140;7.614;2023-05-16T12:25:58;4.13;;;3.17;;
5147;SDS011;2592;48.140;7.614;2023-05-16T12:28:28;4.77;;;3.63;;
5147;SDS011;2592;48.140;7.614;2023-05-16T12:30:55;6.20;;;3.00;;
5147;SDS011;2592;48.140;7.614;2023-05-16T12:33:23;3.40;;;3.10;;
5147;SDS011;2592;48.140;7.614;2023-05-16T12:35:49;4.13;;;2.70;;
5147;SDS011;2592;48.140;7.614;2023-05-16T12:38:17;3.97;;;2.87;;
5147;SDS011;2592;48.140;7.614;2023-05-16T12:40:44;3.67;;;3.20;;
5147;SDS011;2592;48.140;7.614;2023-05-16T12:43:14;2.53;;;2.33;;
5147;SDS011;2592;48.140;7.614;2023-05-16T12:45:41;2.40;;;2.20;;
5147;SDS011;2592;48.140;7.614;2023-05-16T12:48:11;3.47;;;3.00;;
5147;SDS011;2592;48.140;7.614;2023-05-16T12:50:40;3.17;;;2.50;;
5147;SDS011;2592;48.140;7.614;2023-05-16T12:53:09;2.20;;;1.90;;
5147;SDS011;2592;48.140;7.614;2023-05-16T12:55:36;4.50;;;2.43;;
5147;SDS011;2592;48.140;7.614;2023-05-16T12:58:03;2.23;;;1.97;;
5147;SDS011;2592;48.140;7.614;2023-05-16T13:00:30;5.07;;;2.53;;
5147;SDS011;2592;48.140;7.614;2023-05-16T13:02:56;2.37;;;2.17;;
5147;SDS011;2592;48.140;7.614;2023-05-16T13:05:23;10.87;;;2.33;;
5147;SDS011;2592;48.140;7.614;2023-05-16T13:07:51;10.00;;;3.20;;
5147;SDS011;2592;48.140;7.614;2023-05-16T13:10:17;2.73;;;2.30;;
5147;SDS011;2592;48.140;7.614;2023-05-16T13:12:44;3.53;;;1.97;;
5147;SDS011;2592;48.140;7.614;2023-05-16T13:15:11;2.83;;;2.30;;
5147;SDS011;2592;48.140;7.614;2023-05-16T13:17:38;5.27;;;2.20;;
5147;SDS011;2592;48.140;7.614;2023-05-16T13:20:05;5.07;;;2.40;;
5147;SDS011;2592;48.140;7.614;2023-05-16T13:22:34;2.03;;;1.80;;
5147;SDS011;2592;48.140;7.614;2023-05-16T13:25:02;2.20;;;2.00;;
5147;SDS011;2592;48.140;7.614;2023-05-16T13:27:30;2.37;;;2.17;;
5147;SDS011;2592;48.140;7.614;2023-05-16T13:29:56;3.20;;;2.43;;
5147;SDS011;2592;48.140;7.614;2023-05-16T13:32:23;8.93;;;2.20;;
5147;SDS011;2592;48.140;7.614;2023-05-16T13:34:49;4.70;;;2.80;;
5147;SDS011;2592;48.140;7.614;2023-05-16T13:37:16;3.00;;;2.20;;
5147;SDS011;2592;48.140;7.614;2023-05-16T13:39:42;4.50;;;2.20;;
5147;SDS011;2592;48.140;7.614;2023-05-16T13:42:10;2.57;;;2.37;;
5147;SDS011;2592;48.140;7.614;2023-05-16T13:44:37;9.40;;;2.33;;
5147;SDS011;2592;48.140;7.614;2023-05-16T13:47:03;2.83;;;2.33;;
5147;SDS011;2592;48.140;7.614;2023-05-16T13:49:30;2.27;;;1.93;;
5147;SDS011;2592;48.140;7.614;2023-05-16T13:51:56;3.37;;;2.30;;
5147;SDS011;2592;48.140;7.614;2023-05-16T13:54:23;3.13;;;1.80;;
5147;SDS011;2592;48.140;7.614;2023-05-16T13:56:50;6.00;;;2.53;;
5147;SDS011;2592;48.140;7.614;2023-05-16T13:59:18;11.23;;;2.43;;
5147;SDS011;2592;48.140;7.614;2023-05-16T14:01:44;2.07;;;1.70;;
5147;SDS011;2592;48.140;7.614;2023-05-16T14:04:11;6.70;;;2.50;;
5147;SDS011;2592;48.140;7.614;2023-05-16T14:06:37;4.07;;;2.00;;
5147;SDS011;2592;48.140;7.614;2023-05-16T14:09:04;2.03;;;1.50;;
5147;SDS011;2592;48.140;7.614;2023-05-16T14:11:30;2.50;;;2.00;;
5147;SDS011;2592;48.140;7.614;2023-05-16T14:13:57;11.43;;;3.13;;
5147;SDS011;2592;48.140;7.614;2023-05-16T14:16:25;5.33;;;3.10;;
5147;SDS011;2592;48.140;7.614;2023-05-16T14:18:51;7.07;;;3.10;;
5147;SDS011;2592;48.140;7.614;2023-05-16T14:21:17;12.33;;;2.97;;
5147;SDS011;2592;48.140;7.614;2023-05-16T14:23:44;3.60;;;2.60;;
5147;SDS011;2592;48.140;7.614;2023-05-16T14:26:11;3.63;;;2.20;;
5147;SDS011;2592;48.140;7.614;2023-05-16T14:28:37;3.10;;;2.13;;
5147;SDS011;2592;48.140;7.614;2023-05-16T14:31:04;3.40;;;1.90;;
5147;SDS011;2592;48.140;7.614;2023-05-16T14:33:32;7.20;;;3.57;;
5147;SDS011;2592;48.140;7.614;2023-05-16T14:35:59;8.73;;;6.20;;
5147;SDS011;2592;48.140;7.614;2023-05-16T14:38:25;4.13;;;2.40;;
5147;SDS011;2592;48.140;7.614;2023-05-16T14:40:52;2.47;;;2.20;;
5147;SDS011;2592;48.140;7.614;2023-05-16T14:43:18;4.83;;;2.40;;
5147;SDS011;2592;48.140;7.614;2023-05-16T14:45:45;3.30;;;2.50;;
5147;SDS011;2592;48.140;7.614;2023-05-16T14:48:11;3.97;;;1.80;;
5147;SDS011;2592;48.140;7.614;2023-05-16T14:50:39;3.23;;;2.00;;
5147;SDS011;2592;48.140;7.614;2023-05-16T14:53:05;2.60;;;2.00;;
5147;SDS011;2592;48.140;7.614;2023-05-16T14:55:32;13.03;;;2.83;;
5147;SDS011;2592;48.140;7.614;2023-05-16T14:57:58;2.63;;;2.00;;
5147;SDS011;2592;48.140;7.614;2023-05-16T15:00:25;10.20;;;3.80;;
5147;SDS011;2592;48.140;7.614;2023-05-16T15:02:51;2.97;;;2.70;;